sensor_id;sensor_type;location;lat;lon;timestamp;P1;durP1;ratioP1;P2;durP2;ratioP2
28523;SDS011;15734;50.904;6.922;2022-09-27T00:02:02;10.55;;;2.75;;
28523;SDS011;15734;50.904;6.922;2022-09-27T00:04:27;7.65;;;2.70;;
28523;SDS011;15734;50.904;6.922;2022-09-27T00:06:53;9.43;;;2.40;;
28523;SDS011;15734;50.904;6.922;2022-09-27T00:09:18;9.93;;;2.72;;
28523;SDS011;15734;50.904;6.922;2022-09-27T00:11:44;6.55;;;2.92;;
28523;SDS011;15734;50.904;6.922;2022-09-27T00:14:11;9.07;;;3.13;;
28523;SDS011;15734;50.904;6.922;2022-09-27T00:16:39;8.38;;;2.45;;
28523;SDS011;15734;50.904;6.922;2022-09-27T00:19:06;10.43;;;3.63;;
28523;SDS011;15734;50.904;6.922;2022-09-27T00:21:35;12.05;;;3.25;;
28523;SDS011;15734;50.904;6.922;2022-09-27T00:24:01;7.30;;;3.08;;
28523;SDS011;15734;50.904;6.922;2022-09-27T00:26:27;15.27;;;3.15;;
28523;SDS011;15734;50.904;6.922;2022-09-27T00:28:53;9.07;;;3.67;;
28523;SDS011;15734;50.904;6.922;2022-09-27T00:31:20;11.60;;;3.22;;
28523;SDS011;15734;50.904;6.922;2022-09-27T00:33:54;10.60;;;3.30;;
28523;SDS011;15734;50.904;6.922;2022-09-27T00:36:21;15.32;;;4.93;;
28523;SDS011;15734;50.904;6.922;2022-09-27T00:38:49;12.32;;;3.20;;
28523;SDS011;15734;50.904;6.922;2022-09-27T00:41:16;6.72;;;2.60;;
28523;SDS011;15734;50.904;6.922;2022-09-27T00:43:50;10.70;;;3.25;;
28523;SDS011;15734;50.904;6.922;2022-09-27T00:46:29;12.88;;;2.50;;
28523;SDS011;15734;50.904;6.922;2022-09-27T00:49:07;9.48;;;3.70;;
28523;SDS011;15734;50.904;6.922;2022-09-27T00:51:44;8.40;;;3.53;;
28523;SDS011;15734;50.904;6.922;2022-09-27T00:54:15;8.23;;;4.05;;
28523;SDS011;15734;50.904;6.922;2022-09-27T00:56:43;9.82;;;4.03;;
28523;SDS011;15734;50.904;6.922;2022-09-27T00:59:11;7.57;;;4.72;;
28523;SDS011;15734;50.904;6.922;2022-09-27T01:01:42;14.07;;;5.13;;
28523;SDS011;15734;50.904;6.922;2022-09-27T01:04:09;11.70;;;4.50;;
28523;SDS011;15734;50.904;6.922;2022-09-27T01:06:37;8.65;;;4.20;;
28523;SDS011;15734;50.904;6.922;2022-09-27T01:09:03;12.60;;;4.03;;
28523;SDS011;15734;50.904;6.922;2022-09-27T01:20:14;10.48;;;2.67;;
28523;SDS011;15734;50.904;6.922;2022-09-27T01:25:49;11.13;;;2.10;;
28523;SDS011;15734;50.904;6.922;2022-09-27T01:34:17;11.32;;;2.15;;
28523;SDS011;15734;50.904;6.922;2022-09-27T01:39:28;9.13;;;1.95;;
28523;SDS011;15734;50.904;6.922;2022-09-27T01:44:48;3.40;;;1.77;;
28523;SDS011;15734;50.904;6.922;2022-09-27T01:47:18;6.43;;;2.55;;
28523;SDS011;15734;50.904;6.922;2022-09-27T01:49:48;5.70;;;2.13;;
28523;SDS011;15734;50.904;6.922;2022-09-27T01:52:28;9.55;;;3.35;;
28523;SDS011;15734;50.904;6.922;2022-09-27T01:54:59;9.38;;;4.03;;
28523;SDS011;15734;50.904;6.922;2022-09-27T01:57:30;9.00;;;3.65;;
28523;SDS011;15734;50.904;6.922;2022-09-27T02:00:09;7.15;;;3.55;;
28523;SDS011;15734;50.904;6.922;2022-09-27T02:02:43;11.38;;;3.80;;
28523;SDS011;15734;50.904;6.922;2022-09-27T02:05:16;8.90;;;3.85;;
28523;SDS011;15734;50.904;6.922;2022-09-27T02:07:47;10.77;;;3.97;;
28523;SDS011;15734;50.904;6.922;2022-09-27T02:10:22;14.27;;;3.90;;
28523;SDS011;15734;50.904;6.922;2022-09-27T02:13:04;6.40;;;3.78;;
28523;SDS011;15734;50.904;6.922;2022-09-27T02:15:32;12.70;;;4.25;;
28523;SDS011;15734;50.904;6.922;2022-09-27T02:18:12;10.40;;;4.18;;
28523;SDS011;15734;50.904;6.922;2022-09-27T02:20:50;9.50;;;3.93;;
28523;SDS011;15734;50.904;6.922;2022-09-27T02:26:26;7.75;;;3.38;;
28523;SDS011;15734;50.904;6.922;2022-09-27T02:29:01;12.00;;;3.85;;
28523;SDS011;15734;50.904;6.922;2022-09-27T02:31:36;12.88;;;3.90;;
28523;SDS011;15734;50.904;6.922;2022-09-27T02:34:04;6.93;;;3.85;;
28523;SDS011;15734;50.904;6.922;2022-09-27T02:36:35;7.47;;;3.45;;
28523;SDS011;15734;50.904;6.922;2022-09-27T02:39:01;5.55;;;3.53;;
28523;SDS011;15734;50.904;6.922;2022-09-27T02:41:26;13.13;;;3.88;;
28523;SDS011;15734;50.904;6.922;2022-09-27T02:43:56;16.55;;;3.42;;
28523;SDS011;15734;50.904;6.922;2022-09-27T02:54:15;10.57;;;2.97;;
28523;SDS011;15734;50.904;6.922;2022-09-27T03:04:52;4.55;;;2.78;;
28523;SDS011;15734;50.904;6.922;2022-09-27T03:07:23;9.23;;;2.88;;
28523;SDS011;15734;50.904;6.922;2022-09-27T03:09:50;7.88;;;3.22;;
28523;SDS011;15734;50.904;6.922;2022-09-27T03:12:17;11.10;;;3.47;;
28523;SDS011;15734;50.904;6.922;2022-09-27T03:14:55;8.23;;;2.92;;
28523;SDS011;15734;50.904;6.922;2022-09-27T03:17:22;5.40;;;2.92;;
28523;SDS011;15734;50.904;6.922;2022-09-27T03:19:48;7.97;;;3.67;;
28523;SDS011;15734;50.904;6.922;2022-09-27T03:22:14;8.07;;;3.47;;
28523;SDS011;15734;50.904;6.922;2022-09-27T03:24:40;8.48;;;3.72;;
28523;SDS011;15734;50.904;6.922;2022-09-27T03:27:05;4.20;;;3.30;;
28523;SDS011;15734;50.904;6.922;2022-09-27T03:29:31;4.15;;;2.75;;
28523;SDS011;15734;50.904;6.922;2022-09-27T03:31:57;8.40;;;2.95;;
28523;SDS011;15734;50.904;6.922;2022-09-27T03:34:23;7.53;;;2.50;;
28523;SDS011;15734;50.904;6.922;2022-09-27T03:36:48;12.35;;;2.50;;
28523;SDS011;15734;50.904;6.922;2022-09-27T03:39:14;5.93;;;2.13;;
28523;SDS011;15734;50.904;6.922;2022-09-27T03:41:40;3.13;;;1.92;;
28523;SDS011;15734;50.904;6.922;2022-09-27T03:44:05;3.70;;;1.80;;
28523;SDS011;15734;50.904;6.922;2022-09-27T03:46:32;7.45;;;1.75;;
28523;SDS011;15734;50.904;6.922;2022-09-27T03:48:57;7.80;;;2.20;;
28523;SDS011;15734;50.904;6.922;2022-09-27T03:51:23;2.65;;;1.58;;
28523;SDS011;15734;50.904;6.922;2022-09-27T03:53:48;6.45;;;1.88;;
28523;SDS011;15734;50.904;6.922;2022-09-27T03:56:14;5.55;;;1.90;;
28523;SDS011;15734;50.904;6.922;2022-09-27T03:58:40;7.90;;;1.98;;
28523;SDS011;15734;50.904;6.922;2022-09-27T04:01:05;4.05;;;1.80;;
28523;SDS011;15734;50.904;6.922;2022-09-27T04:03:31;8.55;;;2.22;;
28523;SDS011;15734;50.904;6.922;2022-09-27T04:05:56;12.65;;;3.03;;
28523;SDS011;15734;50.904;6.922;2022-09-27T04:08:24;11.52;;;2.67;;
28523;SDS011;15734;50.904;6.922;2022-09-27T04:10:50;7.22;;;3.38;;
28523;SDS011;15734;50.904;6.922;2022-09-27T04:13:15;6.72;;;4.40;;
28523;SDS011;15734;50.904;6.922;2022-09-27T04:15:45;6.93;;;5.20;;
28523;SDS011;15734;50.904;6.922;2022-09-27T04:18:10;15.30;;;5.75;;
28523;SDS011;15734;50.904;6.922;2022-09-27T04:20:36;13.77;;;5.15;;
28523;SDS011;15734;50.904;6.922;2022-09-27T04:23:02;9.45;;;5.10;;
28523;SDS011;15734;50.904;6.922;2022-09-27T04:25:28;8.13;;;4.57;;
28523;SDS011;15734;50.904;6.922;2022-09-27T04:27:53;10.57;;;5.05;;
28523;SDS011;15734;50.904;6.922;2022-09-27T04:30:19;11.05;;;5.30;;
28523;SDS011;15734;50.904;6.922;2022-09-27T04:32:46;11.55;;;5.30;;
28523;SDS011;15734;50.904;6.922;2022-09-27T04:35:12;15.15;;;4.65;;
28523;SDS011;15734;50.904;6.922;2022-09-27T04:37:57;17.92;;;5.20;;
28523;SDS011;15734;50.904;6.922;2022-09-27T04:40:23;13.38;;;5.40;;
28523;SDS011;15734;50.904;6.922;2022-09-27T04:42:49;13.55;;;5.60;;
28523;SDS011;15734;50.904;6.922;2022-09-27T04:45:16;11.77;;;4.63;;
28523;SDS011;15734;50.904;6.922;2022-09-27T04:47:43;10.07;;;4.15;;
28523;SDS011;15734;50.904;6.922;2022-09-27T04:50:13;14.23;;;4.57;;
28523;SDS011;15734;50.904;6.922;2022-09-27T04:52:40;9.57;;;3.85;;
28523;SDS011;15734;50.904;6.922;2022-09-27T04:55:06;10.80;;;4.60;;
28523;SDS011;15734;50.904;6.922;2022-09-27T04:57:32;8.70;;;4.13;;
28523;SDS011;15734;50.904;6.922;2022-09-27T04:59:58;7.28;;;3.40;;
28523;SDS011;15734;50.904;6.922;2022-09-27T05:02:27;9.45;;;4.70;;
28523;SDS011;15734;50.904;6.922;2022-09-27T05:04:53;8.20;;;3.95;;
28523;SDS011;15734;50.904;6.922;2022-09-27T05:07:23;9.23;;;4.15;;
28523;SDS011;15734;50.904;6.922;2022-09-27T05:09:49;9.95;;;3.90;;
28523;SDS011;15734;50.904;6.922;2022-09-27T05:12:14;10.25;;;3.85;;
28523;SDS011;15734;50.904;6.922;2022-09-27T05:14:40;14.02;;;4.43;;
28523;SDS011;15734;50.904;6.922;2022-09-27T05:17:06;9.25;;;4.00;;
28523;SDS011;15734;50.904;6.922;2022-09-27T05:19:32;14.95;;;4.43;;
28523;SDS011;15734;50.904;6.922;2022-09-27T05:21:58;8.00;;;3.67;;
28523;SDS011;15734;50.904;6.922;2022-09-27T05:24:24;10.95;;;3.28;;
28523;SDS011;15734;50.904;6.922;2022-09-27T05:26:51;10.55;;;2.95;;
28523;SDS011;15734;50.904;6.922;2022-09-27T05:29:18;9.68;;;3.60;;
28523;SDS011;15734;50.904;6.922;2022-09-27T05:34:21;6.65;;;3.13;;
28523;SDS011;15734;50.904;6.922;2022-09-27T05:36:47;6.95;;;2.95;;
28523;SDS011;15734;50.904;6.922;2022-09-27T05:39:13;13.27;;;2.53;;
28523;SDS011;15734;50.904;6.922;2022-09-27T05:41:40;10.10;;;3.33;;
28523;SDS011;15734;50.904;6.922;2022-09-27T05:44:06;8.98;;;1.90;;
28523;SDS011;15734;50.904;6.922;2022-09-27T05:46:32;8.88;;;2.30;;
28523;SDS011;15734;50.904;6.922;2022-09-27T05:48:57;6.55;;;2.03;;
28523;SDS011;15734;50.904;6.922;2022-09-27T05:51:23;5.50;;;1.80;;
28523;SDS011;15734;50.904;6.922;2022-09-27T05:53:49;5.15;;;1.25;;
28523;SDS011;15734;50.904;6.922;2022-09-27T05:56:14;6.50;;;1.90;;
28523;SDS011;15734;50.904;6.922;2022-09-27T05:58:41;6.57;;;2.00;;
28523;SDS011;15734;50.904;6.922;2022-09-27T06:01:06;12.20;;;2.03;;
28523;SDS011;15734;50.904;6.922;2022-09-27T06:03:32;5.10;;;2.00;;
28523;SDS011;15734;50.904;6.922;2022-09-27T06:06:02;8.55;;;1.83;;
28523;SDS011;15734;50.904;6.922;2022-09-27T06:08:31;4.32;;;1.33;;
28523;SDS011;15734;50.904;6.922;2022-09-27T06:11:01;3.15;;;1.48;;
28523;SDS011;15734;50.904;6.922;2022-09-27T06:13:32;8.18;;;1.80;;
28523;SDS011;15734;50.904;6.922;2022-09-27T06:15:58;5.85;;;1.70;;
28523;SDS011;15734;50.904;6.922;2022-09-27T06:18:24;5.70;;;1.58;;
28523;SDS011;15734;50.904;6.922;2022-09-27T06:20:50;2.97;;;1.83;;
28523;SDS011;15734;50.904;6.922;2022-09-27T06:23:16;8.55;;;1.92;;
28523;SDS011;15734;50.904;6.922;2022-09-27T06:25:44;10.23;;;2.65;;
28523;SDS011;15734;50.904;6.922;2022-09-27T06:28:11;9.27;;;1.83;;
28523;SDS011;15734;50.904;6.922;2022-09-27T06:30:38;6.93;;;1.83;;
28523;SDS011;15734;50.904;6.922;2022-09-27T06:33:05;7.93;;;1.75;;
28523;SDS011;15734;50.904;6.922;2022-09-27T06:35:30;5.05;;;1.38;;
28523;SDS011;15734;50.904;6.922;2022-09-27T06:38:01;11.98;;;1.48;;
28523;SDS011;15734;50.904;6.922;2022-09-27T06:40:28;7.13;;;1.30;;
28523;SDS011;15734;50.904;6.922;2022-09-27T06:43:00;6.15;;;1.70;;
28523;SDS011;15734;50.904;6.922;2022-09-27T06:45:32;3.70;;;1.23;;
28523;SDS011;15734;50.904;6.922;2022-09-27T06:47:58;8.55;;;1.33;;
28523;SDS011;15734;50.904;6.922;2022-09-27T06:50:27;5.10;;;1.27;;
28523;SDS011;15734;50.904;6.922;2022-09-27T06:52:53;4.13;;;1.33;;
28523;SDS011;15734;50.904;6.922;2022-09-27T06:55:19;2.42;;;1.05;;
28523;SDS011;15734;50.904;6.922;2022-09-27T06:57:45;7.80;;;1.23;;
28523;SDS011;15734;50.904;6.922;2022-09-27T07:00:29;5.00;;;1.08;;
28523;SDS011;15734;50.904;6.922;2022-09-27T07:02:56;7.07;;;1.23;;
28523;SDS011;15734;50.904;6.922;2022-09-27T07:05:25;3.42;;;1.00;;
28523;SDS011;15734;50.904;6.922;2022-09-27T07:07:53;1.40;;;0.90;;
28523;SDS011;15734;50.904;6.922;2022-09-27T07:10:23;6.88;;;1.63;;
28523;SDS011;15734;50.904;6.922;2022-09-27T07:12:50;9.45;;;1.55;;
28523;SDS011;15734;50.904;6.922;2022-09-27T07:15:16;3.92;;;1.00;;
28523;SDS011;15734;50.904;6.922;2022-09-27T07:17:42;6.25;;;1.45;;
28523;SDS011;15734;50.904;6.922;2022-09-27T07:20:08;2.70;;;1.00;;
28523;SDS011;15734;50.904;6.922;2022-09-27T07:22:40;6.30;;;1.60;;
28523;SDS011;15734;50.904;6.922;2022-09-27T07:25:09;5.22;;;1.23;;
28523;SDS011;15734;50.904;6.922;2022-09-27T07:27:35;3.33;;;1.10;;
28523;SDS011;15734;50.904;6.922;2022-09-27T07:30:01;5.18;;;1.25;;
28523;SDS011;15734;50.904;6.922;2022-09-27T07:32:26;5.28;;;1.23;;
28523;SDS011;15734;50.904;6.922;2022-09-27T07:34:52;3.33;;;1.15;;
28523;SDS011;15734;50.904;6.922;2022-09-27T07:37:17;3.00;;;0.80;;
28523;SDS011;15734;50.904;6.922;2022-09-27T07:39:43;8.30;;;0.77;;
28523;SDS011;15734;50.904;6.922;2022-09-27T07:42:09;3.60;;;0.80;;
28523;SDS011;15734;50.904;6.922;2022-09-27T07:44:34;1.83;;;0.70;;
28523;SDS011;15734;50.904;6.922;2022-09-27T07:47:00;1.80;;;0.65;;
28523;SDS011;15734;50.904;6.922;2022-09-27T07:49:25;2.03;;;0.50;;
28523;SDS011;15734;50.904;6.922;2022-09-27T07:51:51;4.45;;;0.88;;
28523;SDS011;15734;50.904;6.922;2022-09-27T07:54:17;1.63;;;0.73;;
28523;SDS011;15734;50.904;6.922;2022-09-27T07:56:43;5.55;;;0.82;;
28523;SDS011;15734;50.904;6.922;2022-09-27T07:59:09;5.20;;;0.75;;
28523;SDS011;15734;50.904;6.922;2022-09-27T08:01:35;0.93;;;0.60;;
28523;SDS011;15734;50.904;6.922;2022-09-27T08:04:00;2.55;;;0.70;;
28523;SDS011;15734;50.904;6.922;2022-09-27T08:06:26;6.32;;;0.82;;
28523;SDS011;15734;50.904;6.922;2022-09-27T08:08:52;2.00;;;0.63;;
28523;SDS011;15734;50.904;6.922;2022-09-27T08:11:18;3.85;;;0.77;;
28523;SDS011;15734;50.904;6.922;2022-09-27T08:13:45;1.02;;;0.60;;
28523;SDS011;15734;50.904;6.922;2022-09-27T08:16:13;5.18;;;1.10;;
28523;SDS011;15734;50.904;6.922;2022-09-27T08:18:39;1.80;;;0.70;;
28523;SDS011;15734;50.904;6.922;2022-09-27T08:21:04;1.55;;;0.60;;
28523;SDS011;15734;50.904;6.922;2022-09-27T08:23:30;3.80;;;0.80;;
28523;SDS011;15734;50.904;6.922;2022-09-27T08:25:56;2.83;;;1.20;;
28523;SDS011;15734;50.904;6.922;2022-09-27T08:28:23;2.72;;;0.85;;
28523;SDS011;15734;50.904;6.922;2022-09-27T08:30:50;2.95;;;0.98;;
28523;SDS011;15734;50.904;6.922;2022-09-27T08:33:16;3.08;;;0.85;;
28523;SDS011;15734;50.904;6.922;2022-09-27T08:35:41;4.78;;;1.20;;
28523;SDS011;15734;50.904;6.922;2022-09-27T08:38:07;2.42;;;1.10;;
28523;SDS011;15734;50.904;6.922;2022-09-27T08:40:42;4.35;;;1.05;;
28523;SDS011;15734;50.904;6.922;2022-09-27T08:44:08;3.53;;;1.27;;
28523;SDS011;15734;50.904;6.922;2022-09-27T08:46:53;1.33;;;0.95;;
28523;SDS011;15734;50.904;6.922;2022-09-27T08:52:22;0.73;;;0.73;;
28523;SDS011;15734;50.904;6.922;2022-09-27T08:54:52;1.77;;;0.90;;
28523;SDS011;15734;50.904;6.922;2022-09-27T08:57:19;3.40;;;0.82;;
28523;SDS011;15734;50.904;6.922;2022-09-27T08:59:53;1.35;;;1.25;;
28523;SDS011;15734;50.904;6.922;2022-09-27T09:02:23;3.45;;;1.20;;
28523;SDS011;15734;50.904;6.922;2022-09-27T09:04:51;1.88;;;0.93;;
28523;SDS011;15734;50.904;6.922;2022-09-27T09:13:31;3.53;;;1.07;;
28523;SDS011;15734;50.904;6.922;2022-09-27T09:16:25;2.22;;;1.13;;
28523;SDS011;15734;50.904;6.922;2022-09-27T09:21:58;3.35;;;1.52;;
28523;SDS011;15734;50.904;6.922;2022-09-27T09:24:51;2.25;;;1.27;;
28523;SDS011;15734;50.904;6.922;2022-09-27T09:32:33;2.38;;;0.93;;
28523;SDS011;15734;50.904;6.922;2022-09-27T09:35:05;7.65;;;1.80;;
28523;SDS011;15734;50.904;6.922;2022-09-27T09:37:37;2.53;;;1.02;;
28523;SDS011;15734;50.904;6.922;2022-09-27T09:42:56;6.22;;;1.58;;
28523;SDS011;15734;50.904;6.922;2022-09-27T09:45:29;3.35;;;1.40;;
28523;SDS011;15734;50.904;6.922;2022-09-27T09:48:11;3.50;;;1.33;;
28523;SDS011;15734;50.904;6.922;2022-09-27T09:50:57;2.90;;;1.40;;
28523;SDS011;15734;50.904;6.922;2022-09-27T09:55:58;2.38;;;1.42;;
28523;SDS011;15734;50.904;6.922;2022-09-27T09:58:54;5.68;;;1.60;;
28523;SDS011;15734;50.904;6.922;2022-09-27T10:01:36;6.72;;;1.80;;
28523;SDS011;15734;50.904;6.922;2022-09-27T10:04:19;2.30;;;1.30;;
28523;SDS011;15734;50.904;6.922;2022-09-27T10:06:49;3.65;;;1.92;;
28523;SDS011;15734;50.904;6.922;2022-09-27T10:09:16;6.43;;;1.52;;
28523;SDS011;15734;50.904;6.922;2022-09-27T10:11:47;5.47;;;1.42;;
28523;SDS011;15734;50.904;6.922;2022-09-27T10:14:14;2.83;;;1.80;;
28523;SDS011;15734;50.904;6.922;2022-09-27T10:16:42;4.35;;;1.95;;
28523;SDS011;15734;50.904;6.922;2022-09-27T10:19:12;4.22;;;1.55;;
28523;SDS011;15734;50.904;6.922;2022-09-27T10:21:42;5.18;;;1.88;;
28523;SDS011;15734;50.904;6.922;2022-09-27T10:24:14;2.67;;;1.17;;
28523;SDS011;15734;50.904;6.922;2022-09-27T10:26:41;6.93;;;1.92;;
28523;SDS011;15734;50.904;6.922;2022-09-27T10:29:16;5.95;;;1.92;;
28523;SDS011;15734;50.904;6.922;2022-09-27T10:31:55;8.68;;;1.92;;
28523;SDS011;15734;50.904;6.922;2022-09-27T10:36:48;5.43;;;1.60;;
28523;SDS011;15734;50.904;6.922;2022-09-27T10:39:27;2.90;;;1.52;;
28523;SDS011;15734;50.904;6.922;2022-09-27T10:41:52;3.97;;;1.50;;
28523;SDS011;15734;50.904;6.922;2022-09-27T10:44:19;4.70;;;1.75;;
28523;SDS011;15734;50.904;6.922;2022-09-27T10:46:49;4.05;;;1.48;;
28523;SDS011;15734;50.904;6.922;2022-09-27T10:49:21;4.00;;;1.30;;
28523;SDS011;15734;50.904;6.922;2022-09-27T10:51:55;2.78;;;1.67;;
28523;SDS011;15734;50.904;6.922;2022-09-27T10:54:27;5.53;;;1.30;;
28523;SDS011;15734;50.904;6.922;2022-09-27T10:59:29;6.45;;;1.60;;
28523;SDS011;15734;50.904;6.922;2022-09-27T11:01:58;2.05;;;1.10;;
28523;SDS011;15734;50.904;6.922;2022-09-27T11:04:29;1.67;;;1.42;;
28523;SDS011;15734;50.904;6.922;2022-09-27T11:07:06;4.00;;;1.00;;
28523;SDS011;15734;50.904;6.922;2022-09-27T11:09:44;4.17;;;1.30;;
28523;SDS011;15734;50.904;6.922;2022-09-27T11:12:27;2.65;;;1.10;;
28523;SDS011;15734;50.904;6.922;2022-09-27T11:17:25;10.60;;;1.45;;
28523;SDS011;15734;50.904;6.922;2022-09-27T11:19:59;2.72;;;1.65;;
28523;SDS011;15734;50.904;6.922;2022-09-27T11:22:31;3.25;;;1.60;;
28523;SDS011;15734;50.904;6.922;2022-09-27T11:33:52;3.67;;;1.25;;
28523;SDS011;15734;50.904;6.922;2022-09-27T11:36:30;2.97;;;1.85;;
28523;SDS011;15734;50.904;6.922;2022-09-27T11:44:53;9.88;;;2.17;;
28523;SDS011;15734;50.904;6.922;2022-09-27T11:47:40;2.40;;;2.00;;
28523;SDS011;15734;50.904;6.922;2022-09-27T11:56:03;2.88;;;1.90;;
28523;SDS011;15734;50.904;6.922;2022-09-27T11:58:57;1.65;;;1.50;;
28523;SDS011;15734;50.904;6.922;2022-09-27T12:06:41;1.88;;;1.40;;
28523;SDS011;15734;50.904;6.922;2022-09-27T12:09:31;5.60;;;1.55;;
28523;SDS011;15734;50.904;6.922;2022-09-27T12:12:20;5.28;;;1.50;;
28523;SDS011;15734;50.904;6.922;2022-09-27T12:15:11;5.10;;;2.60;;
28523;SDS011;15734;50.904;6.922;2022-09-27T12:17:42;5.63;;;1.90;;
28523;SDS011;15734;50.904;6.922;2022-09-27T12:20:18;7.78;;;2.15;;
28523;SDS011;15734;50.904;6.922;2022-09-27T12:26:19;5.40;;;2.50;;
28523;SDS011;15734;50.904;6.922;2022-09-27T12:28:57;12.50;;;2.83;;
28523;SDS011;15734;50.904;6.922;2022-09-27T12:31:43;6.45;;;2.10;;
28523;SDS011;15734;50.904;6.922;2022-09-27T12:34:31;3.40;;;2.03;;
28523;SDS011;15734;50.904;6.922;2022-09-27T12:37:15;4.05;;;1.80;;
28523;SDS011;15734;50.904;6.922;2022-09-27T12:42:18;1.98;;;1.25;;
28523;SDS011;15734;50.904;6.922;2022-09-27T12:44:49;6.65;;;1.45;;
28523;SDS011;15734;50.904;6.922;2022-09-27T12:53:03;1.88;;;1.33;;
28523;SDS011;15734;50.904;6.922;2022-09-27T12:55:58;2.50;;;0.90;;
28523;SDS011;15734;50.904;6.922;2022-09-27T13:03:46;3.92;;;1.20;;
28523;SDS011;15734;50.904;6.922;2022-09-27T13:11:52;1.85;;;0.70;;
28523;SDS011;15734;50.904;6.922;2022-09-27T13:14:39;7.30;;;0.90;;
28523;SDS011;15734;50.904;6.922;2022-09-27T13:17:33;2.47;;;1.10;;
28523;SDS011;15734;50.904;6.922;2022-09-27T13:25:47;1.48;;;1.00;;
28523;SDS011;15734;50.904;6.922;2022-09-27T13:30:57;2.85;;;0.90;;
28523;SDS011;15734;50.904;6.922;2022-09-27T13:36:18;0.85;;;0.70;;
28523;SDS011;15734;50.904;6.922;2022-09-27T13:46:50;0.88;;;0.60;;
28523;SDS011;15734;50.904;6.922;2022-09-27T13:49:23;1.80;;;0.70;;
28523;SDS011;15734;50.904;6.922;2022-09-27T13:51:54;2.75;;;0.63;;
28523;SDS011;15734;50.904;6.922;2022-09-27T13:57:02;5.43;;;0.70;;
28523;SDS011;15734;50.904;6.922;2022-09-27T13:59:48;3.90;;;0.88;;
28523;SDS011;15734;50.904;6.922;2022-09-27T14:02:20;5.28;;;0.70;;
28523;SDS011;15734;50.904;6.922;2022-09-27T14:04:55;2.47;;;0.80;;
28523;SDS011;15734;50.904;6.922;2022-09-27T14:07:25;2.25;;;0.73;;
28523;SDS011;15734;50.904;6.922;2022-09-27T14:09:57;3.65;;;0.80;;
28523;SDS011;15734;50.904;6.922;2022-09-27T14:12:34;3.58;;;0.90;;
28523;SDS011;15734;50.904;6.922;2022-09-27T14:15:03;2.47;;;0.70;;
28523;SDS011;15734;50.904;6.922;2022-09-27T14:17:32;3.58;;;0.50;;
28523;SDS011;15734;50.904;6.922;2022-09-27T14:19:58;2.47;;;0.63;;
28523;SDS011;15734;50.904;6.922;2022-09-27T14:22:25;8.25;;;0.40;;
28523;SDS011;15734;50.904;6.922;2022-09-27T14:24:51;1.05;;;0.57;;
28523;SDS011;15734;50.904;6.922;2022-09-27T14:27:19;3.35;;;0.55;;
28523;SDS011;15734;50.904;6.922;2022-09-27T14:32:18;3.88;;;0.60;;
28523;SDS011;15734;50.904;6.922;2022-09-27T14:35:01;11.60;;;0.65;;
28523;SDS011;15734;50.904;6.922;2022-09-27T14:37:29;7.70;;;0.95;;
28523;SDS011;15734;50.904;6.922;2022-09-27T14:42:29;4.25;;;0.82;;
28523;SDS011;15734;50.904;6.922;2022-09-27T14:45:02;5.32;;;1.05;;
28523;SDS011;15734;50.904;6.922;2022-09-27T14:47:46;4.97;;;0.77;;
28523;SDS011;15734;50.904;6.922;2022-09-27T14:50:24;7.93;;;1.30;;
28523;SDS011;15734;50.904;6.922;2022-09-27T14:52:54;2.13;;;0.70;;
28523;SDS011;15734;50.904;6.922;2022-09-27T14:55:23;5.13;;;0.88;;
28523;SDS011;15734;50.904;6.922;2022-09-27T14:57:53;4.78;;;1.50;;
28523;SDS011;15734;50.904;6.922;2022-09-27T15:00:25;4.47;;;1.17;;
28523;SDS011;15734;50.904;6.922;2022-09-27T15:02:56;14.32;;;1.27;;
28523;SDS011;15734;50.904;6.922;2022-09-27T15:05:25;6.85;;;1.20;;
28523;SDS011;15734;50.904;6.922;2022-09-27T15:07:52;5.88;;;1.33;;
28523;SDS011;15734;50.904;6.922;2022-09-27T15:10:21;7.25;;;2.08;;
28523;SDS011;15734;50.904;6.922;2022-09-27T15:12:51;3.22;;;1.08;;
28523;SDS011;15734;50.904;6.922;2022-09-27T15:15:22;2.90;;;0.85;;
28523;SDS011;15734;50.904;6.922;2022-09-27T15:17:50;10.27;;;1.95;;
28523;SDS011;15734;50.904;6.922;2022-09-27T15:20:23;8.00;;;2.50;;
28523;SDS011;15734;50.904;6.922;2022-09-27T15:22:57;4.47;;;1.50;;
28523;SDS011;15734;50.904;6.922;2022-09-27T15:30:39;2.50;;;0.82;;
28523;SDS011;15734;50.904;6.922;2022-09-27T15:33:22;1.95;;;0.73;;
28523;SDS011;15734;50.904;6.922;2022-09-27T15:35:52;0.77;;;0.50;;
28523;SDS011;15734;50.904;6.922;2022-09-27T15:38:26;2.20;;;0.65;;
28523;SDS011;15734;50.904;6.922;2022-09-27T15:45:48;3.15;;;0.68;;
28523;SDS011;15734;50.904;6.922;2022-09-27T15:48:17;5.00;;;1.08;;
28523;SDS011;15734;50.904;6.922;2022-09-27T15:50:44;10.57;;;2.20;;
28523;SDS011;15734;50.904;6.922;2022-09-27T15:53:11;4.90;;;1.00;;
28523;SDS011;15734;50.904;6.922;2022-09-27T15:55:42;5.68;;;1.45;;
28523;SDS011;15734;50.904;6.922;2022-09-27T15:58:15;3.38;;;1.25;;
28523;SDS011;15734;50.904;6.922;2022-09-27T16:00:51;1.65;;;0.70;;
28523;SDS011;15734;50.904;6.922;2022-09-27T16:03:18;1.20;;;0.77;;
28523;SDS011;15734;50.904;6.922;2022-09-27T16:05:43;3.08;;;1.10;;
28523;SDS011;15734;50.904;6.922;2022-09-27T16:08:09;2.35;;;0.90;;
28523;SDS011;15734;50.904;6.922;2022-09-27T16:10:36;1.48;;;0.90;;
28523;SDS011;15734;50.904;6.922;2022-09-27T16:13:04;1.23;;;0.80;;
28523;SDS011;15734;50.904;6.922;2022-09-27T16:15:30;3.00;;;0.90;;
28523;SDS011;15734;50.904;6.922;2022-09-27T16:17:55;5.30;;;1.17;;
28523;SDS011;15734;50.904;6.922;2022-09-27T16:20:23;3.47;;;1.10;;
28523;SDS011;15734;50.904;6.922;2022-09-27T16:22:50;3.22;;;1.35;;
28523;SDS011;15734;50.904;6.922;2022-09-27T16:25:17;6.65;;;1.00;;
28523;SDS011;15734;50.904;6.922;2022-09-27T16:27:43;3.50;;;1.30;;
28523;SDS011;15734;50.904;6.922;2022-09-27T16:30:09;3.63;;;1.00;;
28523;SDS011;15734;50.904;6.922;2022-09-27T16:32:41;2.55;;;0.95;;
28523;SDS011;15734;50.904;6.922;2022-09-27T16:35:08;2.65;;;0.90;;
28523;SDS011;15734;50.904;6.922;2022-09-27T16:37:35;6.72;;;1.17;;
28523;SDS011;15734;50.904;6.922;2022-09-27T16:40:01;3.75;;;1.10;;
28523;SDS011;15734;50.904;6.922;2022-09-27T16:42:28;8.35;;;1.30;;
28523;SDS011;15734;50.904;6.922;2022-09-27T16:44:54;6.32;;;1.30;;
28523;SDS011;15734;50.904;6.922;2022-09-27T16:47:19;4.82;;;1.58;;
28523;SDS011;15734;50.904;6.922;2022-09-27T16:49:45;4.53;;;1.60;;
28523;SDS011;15734;50.904;6.922;2022-09-27T16:52:29;4.57;;;1.20;;
28523;SDS011;15734;50.904;6.922;2022-09-27T16:54:57;4.20;;;1.65;;
28523;SDS011;15734;50.904;6.922;2022-09-27T16:57:23;5.70;;;1.40;;
28523;SDS011;15734;50.904;6.922;2022-09-27T16:59:49;9.18;;;1.58;;
28523;SDS011;15734;50.904;6.922;2022-09-27T17:02:14;1.92;;;1.10;;
28523;SDS011;15734;50.904;6.922;2022-09-27T17:04:41;7.85;;;2.28;;
28523;SDS011;15734;50.904;6.922;2022-09-27T17:07:07;4.28;;;1.48;;
28523;SDS011;15734;50.904;6.922;2022-09-27T17:09:33;5.47;;;1.50;;
28523;SDS011;15734;50.904;6.922;2022-09-27T17:11:58;7.45;;;1.52;;
28523;SDS011;15734;50.904;6.922;2022-09-27T17:14:24;5.80;;;1.40;;
28523;SDS011;15734;50.904;6.922;2022-09-27T17:16:51;7.45;;;1.58;;
28523;SDS011;15734;50.904;6.922;2022-09-27T17:19:17;3.15;;;1.17;;
28523;SDS011;15734;50.904;6.922;2022-09-27T17:21:43;4.75;;;1.20;;
28523;SDS011;15734;50.904;6.922;2022-09-27T17:24:09;5.72;;;1.70;;
28523;SDS011;15734;50.904;6.922;2022-09-27T17:26:35;4.22;;;2.05;;
28523;SDS011;15734;50.904;6.922;2022-09-27T17:29:01;3.90;;;1.58;;
28523;SDS011;15734;50.904;6.922;2022-09-27T17:31:28;7.63;;;2.40;;
28523;SDS011;15734;50.904;6.922;2022-09-27T17:34:01;4.65;;;1.42;;
28523;SDS011;15734;50.904;6.922;2022-09-27T17:36:28;4.63;;;1.63;;
28523;SDS011;15734;50.904;6.922;2022-09-27T17:38:57;2.92;;;1.70;;
28523;SDS011;15734;50.904;6.922;2022-09-27T17:41:23;9.20;;;1.90;;
28523;SDS011;15734;50.904;6.922;2022-09-27T17:43:54;3.92;;;1.50;;